Time;durP1;ratioP1;P1;durP2;ratioP2;P2;SDS_P1;SDS_P2;PMS_P1;PMS_P2;Temp;Humidity;BMP_temperature;BMP_pressure;BME280_temperature;BME280_humidity;BME280_pressure;Samples;Min_cycle;Max_cycle;Signal;HPM_P1;HPM_P2
2021/08/18 00:01:42;;;;;;;27.40;12.05;;;14.50;99.90;;;;;;5094657;28;20028;-88
2021/08/18 00:04:07;;;;;;;33.78;11.07;;;14.50;99.90;;;;;;5095475;28;20028;-89
2021/08/18 00:06:33;;;;;;;28.83;10.55;;;14.50;99.90;;;;;;5094018;28;20047;-89
2021/08/18 00:08:59;;;;;;;30.65;10.95;;;14.50;99.90;;;;;;5094097;28;20103;-88
2021/08/18 00:11:24;;;;;;;24.98;8.98;;;14.60;99.90;;;;;;5094336;28;20059;-89
2021/08/18 00:13:50;;;;;;;31.23;11.05;;;14.60;99.90;;;;;;5095501;28;20024;-90
2021/08/18 00:16:16;;;;;;;21.60;10.15;;;14.60;99.90;;;;;;5094686;28;20080;-88
2021/08/18 00:18:42;;;;;;;34.78;10.95;;;14.60;99.90;;;;;;5094471;28;20028;-90
2021/08/18 00:21:07;;;;;;;41.53;9.70;;;14.70;99.90;;;;;;5095155;28;20062;-88
2021/08/18 00:23:33;;;;;;;22.52;8.18;;;14.80;99.90;;;;;;5094174;28;20039;-90
2021/08/18 00:25:59;;;;;;;24.17;9.60;;;14.70;99.90;;;;;;5093797;28;20440;-90
2021/08/18 00:28:24;;;;;;;30.75;8.70;;;14.60;99.90;;;;;;5095167;28;20020;-90
2021/08/18 00:30:50;;;;;;;22.90;7.35;;;14.70;99.90;;;;;;5094042;28;20123;-91
2021/08/18 00:33:16;;;;;;;31.42;8.60;;;14.70;99.90;;;;;;5094605;28;20027;-90
2021/08/18 00:35:41;;;;;;;32.28;8.40;;;14.70;99.90;;;;;;5095299;28;20059;-90
2021/08/18 00:38:07;;;;;;;22.75;7.05;;;14.70;99.90;;;;;;5094121;28;20020;-91
2021/08/18 00:40:32;;;;;;;16.65;6.13;;;14.80;99.90;;;;;;5094241;28;20035;-90
2021/08/18 00:42:58;;;;;;;21.80;7.95;;;14.50;99.90;;;;;;5094013;28;20581;-88
2021/08/18 00:45:23;;;;;;;18.23;7.35;;;14.70;99.90;;;;;;5093634;28;20028;-90
2021/08/18 00:47:51;;;;;;;16.00;6.65;;;14.60;99.90;;;;;;5093858;28;20020;-90
2021/08/18 00:50:23;;;;;;;19.52;6.47;;;14.70;99.90;;;;;;5094803;28;20103;-89
2021/08/18 00:52:50;;;;;;;16.17;6.47;;;14.70;99.90;;;;;;5094421;28;20032;-88
2021/08/18 00:55:18;;;;;;;14.73;4.60;;;14.80;99.90;;;;;;5093826;28;20089;-88
2021/08/18 00:57:43;;;;;;;12.82;4.88;;;14.60;99.90;;;;;;5093087;28;20039;-90
2021/08/18 01:00:12;;;;;;;11.55;4.57;;;14.70;99.90;;;;;;5093669;28;20024;-87
2021/08/18 01:02:38;;;;;;;11.77;5.05;;;14.60;99.90;;;;;;5092925;28;20416;-88
2021/08/18 01:05:13;;;;;;;19.42;4.88;;;14.60;99.90;;;;;;5092738;28;20115;-89
2021/08/18 01:07:39;;;;;;;16.00;4.53;;;14.50;99.90;;;;;;5093967;28;20021;-89
2021/08/18 01:10:09;;;;;;;29.83;4.70;;;14.50;99.90;;;;;;5094400;28;20399;-86
2021/08/18 01:12:36;;;;;;;14.30;4.95;;;14.50;99.90;;;;;;5093076;28;20024;-90
2021/08/18 01:15:03;;;;;;;11.90;4.30;;;14.50;99.90;;;;;;5092624;28;20024;-88
2021/08/18 01:17:31;;;;;;;19.48;5.70;;;14.50;99.90;;;;;;5092952;28;20027;-88
2021/08/18 01:19:57;;;;;;;11.20;4.50;;;14.60;99.90;;;;;;5094161;28;20023;-87
2021/08/18 01:22:23;;;;;;;17.98;5.43;;;14.40;99.90;;;;;;5092365;28;20439;-89
2021/08/18 01:24:48;;;;;;;15.18;5.07;;;14.20;99.90;;;;;;5093038;28;20030;-89
2021/08/18 01:27:14;;;;;;;9.25;4.40;;;14.30;99.90;;;;;;5092545;28;20110;-88
2021/08/18 01:29:39;;;;;;;17.73;5.03;;;14.20;99.90;;;;;;5092316;28;20503;-88
2021/08/18 01:32:06;;;;;;;13.50;4.90;;;14.10;99.90;;;;;;5093204;28;20057;-88
2021/08/18 01:34:31;;;;;;;8.73;4.45;;;14.10;99.90;;;;;;5092770;28;20031;-89
2021/08/18 01:36:57;;;;;;;12.40;5.45;;;14.00;99.90;;;;;;5093718;28;20028;-88
2021/08/18 01:39:22;;;;;;;18.70;5.65;;;14.10;99.90;;;;;;5091422;28;20032;-88
2021/08/18 01:41:48;;;;;;;16.23;5.78;;;14.10;99.90;;;;;;5092363;28;20385;-87
2021/08/18 01:44:13;;;;;;;9.88;4.93;;;14.10;99.90;;;;;;5092847;28;20059;-87
2021/08/18 01:46:39;;;;;;;12.68;4.30;;;14.10;99.90;;;;;;5091676;28;20039;-89
2021/08/18 01:49:04;;;;;;;14.60;5.82;;;14.10;99.90;;;;;;5092887;28;20071;-88
2021/08/18 01:51:30;;;;;;;15.43;4.82;;;14.10;99.90;;;;;;5092022;28;20020;-90
2021/08/18 01:53:56;;;;;;;10.45;4.93;;;14.10;99.90;;;;;;5092121;28;20024;-89
2021/08/18 01:56:21;;;;;;;12.30;5.07;;;14.30;99.90;;;;;;5093504;28;20080;-87
2021/08/18 01:58:49;;;;;;;8.77;4.60;;;14.40;99.90;;;;;;5092278;28;20031;-89
2021/08/18 02:01:16;;;;;;;13.75;5.35;;;14.40;99.90;;;;;;5091817;28;20030;-89
2021/08/18 02:03:42;;;;;;;18.08;4.40;;;14.40;99.90;;;;;;5091476;28;20456;-88
2021/08/18 02:06:08;;;;;;;17.27;5.03;;;14.50;99.90;;;;;;5091500;28;20111;-88
2021/08/18 02:08:34;;;;;;;17.88;4.78;;;14.60;99.90;;;;;;5091534;28;20548;-89
2021/08/18 02:10:59;;;;;;;13.95;5.07;;;14.60;99.90;;;;;;5092989;28;20028;-86
2021/08/18 02:13:25;;;;;;;12.15;4.30;;;14.70;99.90;;;;;;5091227;28;20022;-85
2021/08/18 02:15:51;;;;;;;12.93;5.28;;;14.60;99.90;;;;;;5090980;28;20043;-87
2021/08/18 02:18:16;;;;;;;19.63;4.72;;;14.70;99.90;;;;;;5091472;28;20111;-87
2021/08/18 02:20:44;;;;;;;15.80;6.05;;;14.70;99.90;;;;;;5091357;28;20036;-88
2021/08/18 02:23:10;;;;;;;11.70;4.97;;;14.70;99.90;;;;;;5091534;28;20024;-87
2021/08/18 02:25:36;;;;;;;21.02;5.50;;;14.60;99.90;;;;;;5090730;28;20115;-86
2021/08/18 02:28:04;;;;;;;12.05;4.70;;;14.90;99.90;;;;;;5091549;28;20020;-85
2021/08/18 02:30:30;;;;;;;13.10;5.50;;;14.80;99.90;;;;;;5091496;28;20388;-88
2021/08/18 02:32:56;;;;;;;14.40;4.72;;;14.90;99.90;;;;;;5091327;28;20027;-88
2021/08/18 02:35:23;;;;;;;17.88;4.47;;;14.90;99.90;;;;;;5090682;28;20080;-88
2021/08/18 02:37:50;;;;;;;11.88;5.00;;;14.90;99.90;;;;;;5091066;28;20032;-86
2021/08/18 02:40:18;;;;;;;11.35;4.57;;;15.00;99.90;;;;;;5091374;28;20036;-91
2021/08/18 02:42:45;;;;;;;14.52;5.00;;;15.00;99.90;;;;;;5092735;28;20055;-88
2021/08/18 02:45:11;;;;;;;13.77;5.75;;;15.10;99.90;;;;;;5090187;28;20047;-88
2021/08/18 02:47:37;;;;;;;15.43;4.32;;;15.20;99.90;;;;;;5091448;28;20074;-85
2021/08/18 02:50:05;;;;;;;11.60;4.28;;;15.20;99.90;;;;;;5092581;28;20024;-86
2021/08/18 02:52:31;;;;;;;17.55;5.05;;;15.20;99.90;;;;;;5093459;28;20068;-89
2021/08/18 02:54:57;;;;;;;17.50;5.35;;;15.10;99.90;;;;;;5095489;28;20020;-85
2021/08/18 02:57:22;;;;;;;18.38;5.60;;;15.20;99.90;;;;;;5094759;28;20028;-85
2021/08/18 02:59:48;;;;;;;26.55;6.05;;;15.10;99.90;;;;;;5095764;28;20545;-86
2021/08/18 03:02:14;;;;;;;13.73;4.55;;;15.00;99.90;;;;;;5094430;28;20043;-83
2021/08/18 03:04:39;;;;;;;11.95;4.00;;;14.70;99.90;;;;;;5093985;28;20071;-81
2021/08/18 03:07:05;;;;;;;7.53;2.65;;;14.40;99.90;;;;;;5093837;28;20028;-84
2021/08/18 03:09:30;;;;;;;7.25;3.22;;;14.20;99.90;;;;;;5095639;28;20023;-85
2021/08/18 03:11:56;;;;;;;6.95;3.08;;;14.10;99.90;;;;;;5094364;28;20028;-84
2021/08/18 03:14:22;;;;;;;6.07;2.70;;;14.00;99.90;;;;;;5094046;28;20043;-87
2021/08/18 03:16:48;;;;;;;5.63;2.83;;;13.90;99.90;;;;;;5093711;28;20032;-85
2021/08/18 03:19:14;;;;;;;6.70;2.38;;;13.90;99.90;;;;;;5094017;28;20559;-87
2021/08/18 03:21:39;;;;;;;9.57;2.90;;;13.90;99.90;;;;;;5094035;28;20135;-86
2021/08/18 03:24:05;;;;;;;6.70;2.97;;;13.90;99.90;;;;;;5095075;28;20024;-83
2021/08/18 03:26:31;;;;;;;13.23;4.00;;;13.80;99.90;;;;;;5093505;28;20028;-84
2021/08/18 03:28:56;;;;;;;10.30;3.45;;;13.80;99.90;;;;;;5093988;28;20024;-84
2021/08/18 03:31:22;;;;;;;5.15;2.97;;;13.80;99.90;;;;;;5093858;28;20110;-84
2021/08/18 03:33:48;;;;;;;11.95;4.30;;;13.80;99.90;;;;;;5094783;28;20495;-85
2021/08/18 03:36:13;;;;;;;8.75;3.85;;;13.80;99.90;;;;;;5093852;28;20031;-83
2021/08/18 03:38:39;;;;;;;10.73;3.70;;;13.90;99.90;;;;;;5093403;28;20028;-85
2021/08/18 03:41:05;;;;;;;14.88;4.45;;;13.90;99.90;;;;;;5093705;28;20024;-86
2021/08/18 03:43:30;;;;;;;11.45;4.30;;;13.90;99.90;;;;;;5093588;28;20035;-84
2021/08/18 03:45:56;;;;;;;12.98;3.92;;;13.90;99.90;;;;;;5093068;28;20031;-83
2021/08/18 03:48:22;;;;;;;12.43;3.92;;;13.90;99.90;;;;;;5093090;28;20020;-83
2021/08/18 03:50:47;;;;;;;7.93;3.20;;;14.00;99.90;;;;;;5093547;28;20112;-84
2021/08/18 03:53:13;;;;;;;9.30;2.67;;;13.90;99.90;;;;;;5093583;28;20024;-86
2021/08/18 03:55:38;;;;;;;7.90;2.38;;;13.90;99.90;;;;;;5094552;28;20020;-88
2021/08/18 03:58:04;;;;;;;5.15;2.00;;;13.70;99.90;;;;;;5093139;28;20480;-84
2021/08/18 04:00:30;;;;;;;13.48;2.30;;;13.60;99.90;;;;;;5093354;28;20031;-85
2021/08/18 04:02:56;;;;;;;5.10;2.40;;;13.60;99.90;;;;;;5092792;28;20040;-86
2021/08/18 04:05:21;;;;;;;8.65;1.90;;;13.60;99.90;;;;;;5094274;28;20571;-86
2021/08/18 04:07:47;;;;;;;9.23;2.42;;;13.70;99.90;;;;;;5094309;28;20107;-85
2021/08/18 04:10:13;;;;;;;15.23;2.95;;;13.80;99.90;;;;;;5094000;28;20028;-86
2021/08/18 04:12:54;;;;;;;9.35;2.63;;;13.70;99.90;;;;;;5093106;28;20031;-85
2021/08/18 04:15:21;;;;;;;7.78;2.33;;;13.70;99.90;;;;;;5092762;28;20399;-87
2021/08/18 04:17:47;;;;;;;11.45;2.92;;;13.80;99.90;;;;;;5093138;28;20111;-83
2021/08/18 04:20:13;;;;;;;4.80;2.47;;;13.80;99.90;;;;;;5092831;28;20556;-86
2021/08/18 04:22:40;;;;;;;8.15;2.30;;;13.80;99.90;;;;;;5092955;28;20123;-84
2021/08/18 04:25:10;;;;;;;9.75;2.60;;;13.80;99.90;;;;;;5093771;28;20074;-85
2021/08/18 04:27:37;;;;;;;19.40;3.22;;;13.90;99.90;;;;;;5092758;28;20016;-88
2021/08/18 04:30:04;;;;;;;15.88;3.28;;;14.00;99.90;;;;;;5092297;28;20028;-83
2021/08/18 04:32:30;;;;;;;6.22;2.63;;;14.00;99.90;;;;;;5092704;28;20076;-88
2021/08/18 04:34:55;;;;;;;14.40;3.67;;;14.10;99.90;;;;;;5092406;28;20020;-84
2021/08/18 04:37:21;;;;;;;8.52;3.03;;;14.30;99.90;;;;;;5093923;28;20496;-84
2021/08/18 04:39:46;;;;;;;9.45;3.55;;;14.30;99.90;;;;;;5093620;28;20487;-85
2021/08/18 04:42:12;;;;;;;10.80;4.00;;;14.30;99.90;;;;;;5092894;28;20028;-85
2021/08/18 04:44:37;;;;;;;17.65;4.88;;;14.40;99.90;;;;;;5092886;28;20020;-87
2021/08/18 04:47:03;;;;;;;16.13;4.57;;;14.40;99.90;;;;;;5092609;28;20031;-85
2021/08/18 04:49:29;;;;;;;14.85;4.35;;;14.40;99.90;;;;;;5092528;28;20027;-89
2021/08/18 04:51:54;;;;;;;21.30;4.97;;;14.30;99.90;;;;;;5092664;28;20021;-86
2021/08/18 04:54:20;;;;;;;17.35;4.60;;;14.30;99.90;;;;;;5093669;28;20020;-87
2021/08/18 04:56:45;;;;;;;17.25;4.88;;;14.30;99.90;;;;;;5092821;28;20107;-86
2021/08/18 04:59:11;;;;;;;17.25;4.65;;;14.30;99.90;;;;;;5092570;28;20032;-86
2021/08/18 05:01:36;;;;;;;10.98;4.38;;;14.30;99.90;;;;;;5091794;28;20035;-87
2021/08/18 05:04:03;;;;;;;16.48;4.47;;;14.30;99.90;;;;;;5093368;28;20048;-86
2021/08/18 05:06:28;;;;;;;22.13;4.53;;;14.40;99.90;;;;;;5093546;28;20027;-88
2021/08/18 05:08:54;;;;;;;12.07;4.30;;;14.40;99.90;;;;;;5092346;28;20024;-84
2021/08/18 05:11:19;;;;;;;17.98;4.68;;;14.40;99.90;;;;;;5092255;28;20081;-86
2021/08/18 05:13:45;;;;;;;11.93;4.18;;;14.30;99.90;;;;;;5091499;28;20027;-86
2021/08/18 05:16:10;;;;;;;22.08;3.53;;;14.40;99.90;;;;;;5091411;28;20069;-85
2021/08/18 05:18:36;;;;;;;28.67;4.53;;;14.50;99.90;;;;;;5092648;28;20020;-86
2021/08/18 05:21:01;;;;;;;16.23;3.85;;;14.50;99.90;;;;;;5092180;28;20035;-87
2021/08/18 05:23:28;;;;;;;14.95;4.18;;;14.60;99.90;;;;;;5092074;28;20066;-84
2021/08/18 05:25:53;;;;;;;12.02;3.65;;;14.60;99.90;;;;;;5092605;28;20122;-84
2021/08/18 05:28:19;;;;;;;18.10;3.72;;;14.70;99.90;;;;;;5091621;28;20127;-82
2021/08/18 05:30:45;;;;;;;7.65;3.40;;;14.70;99.90;;;;;;5092836;28;20016;-81
2021/08/18 05:33:10;;;;;;;19.95;4.28;;;14.60;99.90;;;;;;5091507;28;20496;-81
2021/08/18 05:35:36;;;;;;;12.20;2.70;;;14.50;99.90;;;;;;5092092;28;20032;-82
2021/08/18 05:38:01;;;;;;;9.98;2.75;;;14.50;99.90;;;;;;5091411;28;20039;-86
2021/08/18 05:40:27;;;;;;;9.45;2.50;;;14.60;99.90;;;;;;5091556;28;20027;-83
2021/08/18 05:42:53;;;;;;;17.67;2.20;;;14.40;99.90;;;;;;5092681;28;20035;-83
2021/08/18 05:45:19;;;;;;;5.65;1.85;;;14.40;99.90;;;;;;5092068;28;20060;-85
2021/08/18 05:47:44;;;;;;;5.05;1.75;;;14.30;99.90;;;;;;5091387;28;20105;-85
2021/08/18 05:50:11;;;;;;;11.75;1.92;;;14.20;99.90;;;;;;5092658;28;20047;-86
2021/08/18 05:52:36;;;;;;;3.72;1.17;;;14.00;99.90;;;;;;5091316;28;20044;-84
2021/08/18 05:55:03;;;;;;;5.10;1.58;;;13.90;99.90;;;;;;5090823;28;20537;-88
2021/08/18 05:57:28;;;;;;;3.50;1.20;;;13.90;99.90;;;;;;5082379;28;20012;-87
2021/08/18 05:59:54;;;;;;;3.55;1.30;;;13.90;99.90;;;;;;5084398;28;20031;-89
2021/08/18 06:02:20;;;;;;;11.75;1.48;;;13.90;99.90;;;;;;5086450;28;20031;-89
2021/08/18 06:04:45;;;;;;;3.80;1.20;;;14.00;99.90;;;;;;5087616;28;20071;-89
2021/08/18 06:07:11;;;;;;;6.55;1.42;;;14.10;99.90;;;;;;5087501;28;20089;-89
2021/08/18 06:09:37;;;;;;;2.00;1.13;;;14.20;99.90;;;;;;5085020;28;20525;-85
2021/08/18 06:12:07;;;;;;;5.22;1.60;;;14.10;99.90;;;;;;5089717;28;20028;-90
2021/08/18 06:14:33;;;;;;;5.47;1.55;;;14.10;99.90;;;;;;5089955;28;20097;-89
2021/08/18 06:16:58;;;;;;;5.60;1.52;;;14.30;99.90;;;;;;5087894;28;20136;-90
2021/08/18 06:19:24;;;;;;;9.57;1.50;;;14.30;99.90;;;;;;5089195;28;20757;-84
2021/08/18 06:21:51;;;;;;;7.18;1.85;;;14.20;99.90;;;;;;5087092;28;20056;-88
2021/08/18 06:25:03;;;;;;;14.35;2.63;;;14.20;99.90;;;;;;5087374;28;20058;-84
2021/08/18 06:27:03;;;;;;;6.38;1.63;;;14.30;99.90;;;;;;5082158;28;20032;-86
2021/08/18 06:29:31;;;;;;;12.07;2.47;;;14.30;99.90;;;;;;5086519;28;20444;-86
2021/08/18 06:31:56;;;;;;;23.38;2.35;;;14.30;99.90;;;;;;5087924;28;20031;-84
2021/08/18 06:34:22;;;;;;;14.32;2.92;;;14.30;99.90;;;;;;5087721;28;20024;-82
2021/08/18 06:36:48;;;;;;;12.60;2.40;;;14.30;99.90;;;;;;5087073;28;20040;-82
2021/08/18 06:39:13;;;;;;;15.65;2.50;;;14.40;99.90;;;;;;5086625;28;20028;-82
2021/08/18 06:41:39;;;;;;;15.77;4.28;;;14.40;99.90;;;;;;5087497;28;20044;-82
2021/08/18 06:44:04;;;;;;;10.75;2.75;;;14.40;99.90;;;;;;5086046;28;20136;-83
2021/08/18 06:46:30;;;;;;;10.50;1.92;;;14.50;99.90;;;;;;5086754;28;20043;-87
2021/08/18 06:48:55;;;;;;;17.15;3.40;;;14.40;99.90;;;;;;5082317;28;20016;-86
2021/08/18 06:51:21;;;;;;;23.77;2.67;;;14.60;99.90;;;;;;5085862;28;20028;-87
2021/08/18 06:53:46;;;;;;;15.82;2.45;;;14.60;99.90;;;;;;5086418;28;20016;-85
2021/08/18 06:56:12;;;;;;;14.10;2.55;;;14.70;99.90;;;;;;5078160;28;20020;-87
2021/08/18 06:58:38;;;;;;;13.18;2.65;;;14.90;99.90;;;;;;5087411;28;20068;-85
2021/08/18 07:01:04;;;;;;;11.32;2.08;;;14.80;99.90;;;;;;5087826;28;20024;-85
2021/08/18 07:03:30;;;;;;;4.30;1.45;;;14.70;99.90;;;;;;5091628;28;20428;-82
2021/08/18 07:05:56;;;;;;;12.77;1.63;;;14.60;99.90;;;;;;5091150;28;20070;-83
2021/08/18 07:08:21;;;;;;;7.05;1.95;;;14.50;99.90;;;;;;5090379;28;20024;-85
2021/08/18 07:10:47;;;;;;;9.15;1.67;;;14.50;99.90;;;;;;5090017;28;20024;-85
2021/08/18 07:13:13;;;;;;;6.75;1.83;;;14.50;99.90;;;;;;5090392;28;20021;-86
2021/08/18 07:15:38;;;;;;;11.02;1.92;;;14.50;99.90;;;;;;5089956;28;20028;-87
2021/08/18 07:18:04;;;;;;;5.75;1.77;;;14.60;99.90;;;;;;5090356;28;20020;-86
2021/08/18 07:20:30;;;;;;;11.35;1.92;;;14.80;99.90;;;;;;5090169;28;20020;-83
2021/08/18 07:22:55;;;;;;;13.05;2.00;;;14.80;99.90;;;;;;5089826;28;20028;-86
2021/08/18 07:25:21;;;;;;;9.40;1.75;;;14.90;99.90;;;;;;5089781;28;20031;-87
2021/08/18 07:27:47;;;;;;;11.40;2.03;;;15.10;99.90;;;;;;5090141;28;20123;-84
2021/08/18 07:30:13;;;;;;;16.70;2.22;;;15.20;99.90;;;;;;5089967;28;20025;-85
2021/08/18 07:32:38;;;;;;;10.80;2.55;;;15.20;99.90;;;;;;5089630;28;20024;-84
2021/08/18 07:35:05;;;;;;;14.75;2.28;;;15.30;99.90;;;;;;5089491;28;20086;-84
2021/08/18 07:37:32;;;;;;;12.93;2.38;;;15.30;99.90;;;;;;5091791;28;20020;-84
2021/08/18 07:39:58;;;;;;;10.23;1.65;;;15.50;99.90;;;;;;5093920;28;20036;-85
2021/08/18 07:42:23;;;;;;;15.93;1.98;;;15.50;99.90;;;;;;5093358;28;20182;-83
2021/08/18 07:44:49;;;;;;;10.65;1.92;;;15.70;99.90;;;;;;5094515;28;20095;-83
2021/08/18 07:47:14;;;;;;;21.77;3.00;;;15.70;99.90;;;;;;5094793;28;20158;-86
2021/08/18 07:49:40;;;;;;;11.65;1.88;;;15.70;99.90;;;;;;5093504;28;20392;-84
2021/08/18 07:52:06;;;;;;;11.80;2.63;;;15.80;99.90;;;;;;5094571;28;20023;-85
2021/08/18 07:54:32;;;;;;;13.50;1.98;;;15.90;99.90;;;;;;5086621;28;20093;-87
2021/08/18 07:56:58;;;;;;;9.35;1.88;;;15.90;99.90;;;;;;5086305;28;20042;-84
2021/08/18 07:59:23;;;;;;;15.77;1.80;;;15.90;99.90;;;;;;5088616;28;20408;-86
2021/08/18 08:01:49;;;;;;;18.42;3.05;;;15.80;99.90;;;;;;5090626;28;20032;-87
2021/08/18 08:04:14;;;;;;;18.05;2.50;;;15.70;99.90;;;;;;5088508;28;20051;-85
2021/08/18 08:06:40;;;;;;;9.63;2.15;;;15.80;99.90;;;;;;5088564;28;20036;-85
2021/08/18 08:09:06;;;;;;;8.75;1.88;;;15.60;99.90;;;;;;5089025;28;20032;-84
2021/08/18 08:11:31;;;;;;;9.00;2.60;;;15.70;99.90;;;;;;5090040;28;20391;-82
2021/08/18 08:13:57;;;;;;;8.23;2.15;;;15.90;99.90;;;;;;5080626;28;20123;-86
2021/08/18 08:16:22;;;;;;;8.30;1.73;;;15.90;99.90;;;;;;5089835;28;20539;-87
2021/08/18 08:18:48;;;;;;;7.53;1.63;;;16.00;99.90;;;;;;5088869;28;20032;-83
2021/08/18 08:21:14;;;;;;;5.78;1.67;;;16.00;99.90;;;;;;5090329;28;20024;-85
2021/08/18 08:23:41;;;;;;;11.13;1.58;;;15.90;99.90;;;;;;5088628;28;20042;-82
2021/08/18 08:26:07;;;;;;;8.00;1.80;;;15.80;99.90;;;;;;5089823;28;20024;-82
2021/08/18 08:28:33;;;;;;;9.30;2.20;;;15.80;99.90;;;;;;5088830;28;20089;-81
2021/08/18 08:31:00;;;;;;;11.73;2.22;;;15.80;99.90;;;;;;5089883;28;20472;-83
2021/08/18 08:33:26;;;;;;;9.02;2.85;;;15.90;99.90;;;;;;5089934;28;20036;-84
2021/08/18 08:35:51;;;;;;;20.55;2.80;;;16.30;99.90;;;;;;5087909;28;20047;-82
2021/08/18 08:38:17;;;;;;;16.02;2.67;;;16.50;99.90;;;;;;5088141;28;20480;-83
2021/08/18 08:40:44;;;;;;;11.43;2.35;;;16.50;99.90;;;;;;5089342;28;20657;-84
2021/08/18 08:43:12;;;;;;;10.82;2.70;;;16.10;99.90;;;;;;5089281;28;20020;-83
2021/08/18 08:45:46;;;;;;;7.60;2.15;;;15.60;99.90;;;;;;5089025;28;20448;-83
2021/08/18 08:48:14;;;;;;;12.98;3.03;;;15.40;99.90;;;;;;5088463;28;20052;-83
2021/08/18 08:50:40;;;;;;;16.38;3.15;;;15.40;99.90;;;;;;5089497;28;20028;-79
2021/08/18 08:53:05;;;;;;;15.82;3.67;;;15.50;99.90;;;;;;5088007;28;20012;-81
2021/08/18 08:55:31;;;;;;;17.52;3.08;;;15.60;99.90;;;;;;5086672;28;20032;-81
2021/08/18 08:57:57;;;;;;;15.35;2.65;;;15.70;99.90;;;;;;5085106;28;20168;-82
2021/08/18 09:00:24;;;;;;;11.68;2.58;;;15.90;99.90;;;;;;5089079;28;20073;-81
2021/08/18 09:03:18;;;;;;;12.05;3.17;;;16.20;99.90;;;;;;5087631;28;20021;-86
2021/08/18 09:05:45;;;;;;;15.35;2.45;;;16.30;99.90;;;;;;5087605;28;20032;-84
2021/08/18 09:08:14;;;;;;;12.27;2.33;;;15.90;99.90;;;;;;5087677;28;20024;-84
2021/08/18 09:10:41;;;;;;;7.68;1.70;;;15.90;99.90;;;;;;5087458;28;20016;-84
2021/08/18 09:13:14;;;;;;;12.68;2.20;;;16.00;99.90;;;;;;5087401;28;20396;-81
2021/08/18 09:15:40;;;;;;;9.85;1.80;;;15.80;99.90;;;;;;5087781;28;20024;-83
2021/08/18 09:18:06;;;;;;;11.15;2.85;;;16.00;99.90;;;;;;5087007;28;20500;-83
2021/08/18 09:20:33;;;;;;;12.32;2.78;;;16.00;99.90;;;;;;5087528;28;20085;-84
2021/08/18 09:23:04;;;;;;;15.48;2.55;;;16.40;99.90;;;;;;5088823;28;20024;-82
2021/08/18 09:25:31;;;;;;;11.55;2.85;;;17.00;99.90;;;;;;5090459;28;20020;-82
2021/08/18 09:27:56;;;;;;;14.93;3.15;;;17.00;99.90;;;;;;5092704;28;20052;-83
2021/08/18 09:30:26;;;;;;;14.15;2.35;;;16.80;99.90;;;;;;5091669;28;20054;-84
2021/08/18 09:32:52;;;;;;;23.98;3.40;;;16.60;99.90;;;;;;5091523;28;20020;-82
2021/08/18 09:35:21;;;;;;;11.32;2.97;;;16.70;99.90;;;;;;5090823;28;20019;-83
2021/08/18 09:37:59;;;;;;;13.68;4.55;;;16.60;99.90;;;;;;5091455;28;20027;-85
2021/08/18 09:40:27;;;;;;;22.88;3.95;;;16.40;99.90;;;;;;5092624;28;20028;-82
2021/08/18 09:42:54;;;;;;;19.27;3.97;;;16.00;99.90;;;;;;5092448;28;20384;-83
2021/08/18 09:45:25;;;;;;;29.73;18.00;;;15.70;99.90;;;;;;5090627;28;20039;-85
2021/08/18 09:48:05;;;;;;;35.63;19.73;;;15.40;99.90;;;;;;5092031;28;20028;-81
2021/08/18 09:50:57;;;;;;;23.02;9.80;;;15.40;99.90;;;;;;5091166;28;20024;-82
2021/08/18 09:53:29;;;;;;;17.92;6.25;;;15.40;99.90;;;;;;5092408;28;20016;-82
2021/08/18 09:55:56;;;;;;;28.63;13.70;;;15.40;99.90;;;;;;5090481;28;20081;-85
2021/08/18 09:58:32;;;;;;;20.33;8.63;;;15.40;99.90;;;;;;5092389;28;20110;-83
2021/08/18 10:01:04;;;;;;;16.92;11.05;;;15.50;99.90;;;;;;5090307;28;20555;-85
2021/08/18 10:03:31;;;;;;;16.98;6.25;;;15.70;99.90;;;;;;5091180;28;20472;-84
2021/08/18 10:05:58;;;;;;;17.73;3.50;;;16.10;99.90;;;;;;5090591;28;20024;-84
2021/08/18 10:08:24;;;;;;;12.38;3.33;;;16.20;99.90;;;;;;5090652;28;20024;-83
2021/08/18 10:10:51;;;;;;;10.60;3.28;;;15.90;99.90;;;;;;5090754;28;20110;-83
2021/08/18 10:13:17;;;;;;;7.50;2.33;;;15.80;99.90;;;;;;5092503;28;20472;-86
2021/08/18 10:15:43;;;;;;;10.57;3.67;;;15.60;99.90;;;;;;5090412;28;20032;-83
2021/08/18 10:18:10;;;;;;;11.10;3.03;;;15.90;99.90;;;;;;5090342;28;20016;-81
2021/08/18 10:20:37;;;;;;;40.38;17.58;;;15.80;99.90;;;;;;5090467;28;20039;-85
2021/08/18 10:23:10;;;;;;;33.42;12.68;;;15.90;99.90;;;;;;5070627;28;20461;-83
2021/08/18 10:25:48;;;;;;;55.70;26.88;;;16.30;99.90;;;;;;5070169;28;20031;-84
2021/08/18 10:28:16;;;;;;;10.68;3.05;;;16.60;99.90;;;;;;5072841;28;20499;-81
2021/08/18 10:30:54;;;;;;;15.20;3.90;;;16.70;99.90;;;;;;5090967;28;20119;-85
2021/08/18 10:33:50;;;;;;;17.10;3.08;;;17.00;99.90;;;;;;5090654;28;20028;-83
2021/08/18 10:36:42;;;;;;;13.40;3.25;;;16.80;99.90;;;;;;5091695;28;20084;-84
2021/08/18 10:39:25;;;;;;;14.43;3.17;;;16.60;99.90;;;;;;5080619;28;20043;-80
2021/08/18 10:42:03;;;;;;;14.38;3.33;;;16.70;99.90;;;;;;5090585;28;20024;-81
2021/08/18 10:44:48;;;;;;;17.00;3.53;;;16.80;99.90;;;;;;5089979;28;20036;-82
2021/08/18 10:47:21;;;;;;;15.55;3.95;;;16.90;99.90;;;;;;5091651;28;20054;-83
2021/08/18 10:49:52;;;;;;;16.70;4.87;;;16.90;99.90;;;;;;5090477;28;20022;-82
2021/08/18 10:52:41;;;;;;;12.52;3.30;;;16.90;99.90;;;;;;5090507;28;20052;-78
2021/08/18 10:55:26;;;;;;;9.60;3.15;;;16.70;99.90;;;;;;5076459;28;20496;-78
2021/08/18 10:58:01;;;;;;;12.07;3.25;;;16.30;99.90;;;;;;5090404;28;20495;-83
2021/08/18 11:00:33;;;;;;;10.25;3.40;;;15.70;99.90;;;;;;5091773;28;20016;-84
2021/08/18 11:03:05;;;;;;;19.85;4.10;;;15.40;99.90;;;;;;5091770;28;20384;-85
2021/08/18 11:05:42;;;;;;;16.23;3.95;;;15.50;99.90;;;;;;5091071;28;20127;-85
2021/08/18 11:08:10;;;;;;;19.25;6.47;;;15.50;99.90;;;;;;5090517;28;20020;-83
2021/08/18 11:10:53;;;;;;;13.55;3.83;;;15.30;99.90;;;;;;5090219;28;20106;-80
2021/08/18 11:13:51;;;;;;;19.45;4.03;;;15.20;99.90;;;;;;5092372;28;20077;-85
2021/08/18 11:16:26;;;;;;;15.07;6.57;;;15.00;99.90;;;;;;5084215;28;20048;-87
2021/08/18 11:18:59;;;;;;;12.60;3.58;;;15.00;99.90;;;;;;5087395;28;20032;-87
2021/08/18 11:21:32;;;;;;;13.70;5.13;;;15.00;99.90;;;;;;5092872;28;20557;-85
2021/08/18 11:24:09;;;;;;;25.23;9.07;;;15.40;99.90;;;;;;5090474;28;20031;-87
2021/08/18 11:26:38;;;;;;;22.17;6.50;;;15.70;99.90;;;;;;5091380;28;20107;-86
2021/08/18 11:29:07;;;;;;;20.60;8.32;;;16.10;99.90;;;;;;5090039;28;20032;-87
2021/08/18 11:31:37;;;;;;;30.15;8.15;;;16.00;99.90;;;;;;5090623;28;20391;-89
2021/08/18 11:34:04;;;;;;;27.23;7.63;;;16.00;99.90;;;;;;5090654;28;20021;-88
2021/08/18 11:36:35;;;;;;;32.72;10.20;;;16.20;99.90;;;;;;5088473;28;20046;-86
2021/08/18 11:39:04;;;;;;;11.93;4.78;;;16.40;99.90;;;;;;5093706;28;20077;-87
2021/08/18 11:41:35;;;;;;;11.80;5.85;;;16.30;99.90;;;;;;5093260;28;20420;-82
2021/08/18 11:44:01;;;;;;;15.32;4.47;;;16.30;99.90;;;;;;5092156;28;20652;-82
2021/08/18 11:46:26;;;;;;;24.23;4.35;;;16.70;99.90;;;;;;5093406;28;20020;-81
2021/08/18 11:49:01;;;;;;;14.60;4.43;;;16.50;99.90;;;;;;5094653;28;20024;-81
2021/08/18 11:51:26;;;;;;;14.20;4.15;;;16.30;99.90;;;;;;5094654;28;20025;-83
2021/08/18 11:53:53;;;;;;;18.33;5.57;;;16.10;99.90;;;;;;5092929;28;20023;-82
2021/08/18 11:56:24;;;;;;;18.17;4.80;;;15.70;99.90;;;;;;5094653;28;20391;-81
2021/08/18 11:58:56;;;;;;;15.68;4.95;;;15.50;99.90;;;;;;5093339;28;20024;-81
2021/08/18 12:01:22;;;;;;;16.67;4.97;;;15.50;99.90;;;;;;5093329;28;20028;-82
2021/08/18 12:03:47;;;;;;;26.80;6.00;;;15.60;99.90;;;;;;5093073;28;20121;-82
2021/08/18 12:06:13;;;;;;;19.70;5.35;;;15.80;99.90;;;;;;5092705;28;20070;-86
2021/08/18 12:08:41;;;;;;;20.17;5.45;;;16.00;99.90;;;;;;5093270;28;20047;-84
2021/08/18 12:11:08;;;;;;;18.20;5.15;;;16.50;99.90;;;;;;5093078;28;20074;-83
2021/08/18 12:13:45;;;;;;;20.10;6.25;;;16.70;99.90;;;;;;5093202;28;20028;-85
2021/08/18 12:16:26;;;;;;;19.75;5.25;;;16.80;99.90;;;;;;5092562;28;20038;-85
2021/08/18 12:18:51;;;;;;;16.52;5.88;;;16.80;99.90;;;;;;5093441;28;20024;-84
2021/08/18 12:21:21;;;;;;;22.33;6.55;;;16.70;99.90;;;;;;5093183;28;20507;-85
2021/08/18 12:23:49;;;;;;;27.63;7.80;;;16.60;99.90;;;;;;5092280;28;20093;-85
2021/08/18 12:26:35;;;;;;;20.25;6.13;;;16.70;99.90;;;;;;5093941;28;20039;-85
2021/08/18 12:29:07;;;;;;;23.20;7.03;;;16.90;99.90;;;;;;5094290;28;20073;-87
2021/08/18 12:32:07;;;;;;;20.90;7.25;;;17.10;99.90;;;;;;5092554;28;20020;-85
2021/08/18 12:34:32;;;;;;;24.02;7.38;;;17.30;99.90;;;;;;5092741;28;20021;-85
2021/08/18 12:37:07;;;;;;;28.48;7.40;;;17.40;99.90;;;;;;5092444;28;20546;-86
2021/08/18 12:39:44;;;;;;;28.70;7.75;;;17.20;99.90;;;;;;5093026;28;20036;-85
2021/08/18 12:42:41;;;;;;;26.10;8.05;;;17.00;99.90;;;;;;5092659;28;20032;-83